createdAt,value
2023-04-10T00:09:08.766Z,0
2023-04-10T00:24:32.062Z,0
2023-04-10T00:39:55.370Z,0
2023-04-10T00:55:18.667Z,0
2023-04-10T01:10:41.980Z,0
2023-04-10T01:26:05.275Z,0
2023-04-10T01:41:28.586Z,0
2023-04-10T01:56:51.893Z,0
2023-04-10T02:12:15.192Z,0
2023-04-10T02:27:38.502Z,0
2023-04-10T02:43:01.814Z,0
2023-04-10T02:58:25.112Z,0
2023-04-10T03:13:48.417Z,0
2023-04-10T03:29:10.752Z,0
2023-04-10T03:44:34.048Z,0
2023-04-10T03:59:57.314Z,0
2023-04-10T04:15:20.580Z,0
2023-04-10T04:30:43.839Z,0
2023-04-10T04:46:07.108Z,5
2023-04-10T05:01:29.383Z,11
2023-04-10T05:16:52.647Z,16
2023-04-10T05:32:15.915Z,22
2023-04-10T05:47:39.189Z,28
2023-04-10T06:03:02.435Z,33
2023-04-10T06:18:25.699Z,39
2023-04-10T06:33:48.975Z,45
2023-04-10T06:49:12.222Z,45
2023-04-10T07:04:35.492Z,56
2023-04-10T07:19:58.746Z,61
2023-04-10T07:35:21.999Z,67
2023-04-10T07:50:45.253Z,73
2023-04-10T08:06:08.516Z,73
2023-04-10T08:21:30.797Z,78
2023-04-10T08:36:54.044Z,84
2023-04-10T08:52:17.317Z,95
2023-04-10T09:07:40.567Z,101
2023-04-10T09:23:03.813Z,101
2023-04-10T09:38:27.090Z,123
2023-04-10T09:53:50.337Z,140
2023-04-10T09:55:13.000Z,140
2023-04-10T09:56:37.150Z,146
2023-04-10T09:58:00.559Z,146
2023-04-10T09:59:23.965Z,146
2023-04-10T10:00:47.369Z,146
2023-04-10T10:02:10.786Z,146
2023-04-10T10:03:33.211Z,146
2023-04-10T10:04:56.607Z,151
2023-04-10T10:06:20.018Z,146
2023-04-10T10:07:43.422Z,157
2023-04-10T10:09:06.841Z,157
2023-04-10T10:10:30.242Z,163
2023-04-10T10:11:53.652Z,163
2023-04-10T10:13:17.071Z,163
2023-04-10T10:14:40.471Z,163
2023-04-10T10:16:03.880Z,168
2023-04-10T10:17:27.270Z,174
2023-04-10T10:18:50.699Z,174
2023-04-10T10:20:14.096Z,168
2023-04-10T10:21:36.523Z,168
2023-04-10T10:22:59.937Z,174
2023-04-10T10:24:23.351Z,174
2023-04-10T10:25:46.747Z,196
2023-04-10T10:27:10.146Z,191
2023-04-10T10:28:33.564Z,191
2023-04-10T10:29:56.963Z,202
2023-04-10T10:31:20.366Z,208
2023-04-10T10:32:43.781Z,196
2023-04-10T10:34:07.184Z,140
2023-04-10T10:35:30.608Z,163
2023-04-10T10:36:53.999Z,225
2023-04-10T10:38:17.415Z,230
2023-04-10T10:39:39.839Z,225
2023-04-10T10:41:03.241Z,230
2023-04-10T10:42:26.647Z,236
2023-04-10T10:43:50.071Z,253
2023-04-10T10:45:13.466Z,157
2023-04-10T10:46:36.879Z,151
2023-04-10T10:48:00.297Z,146
2023-04-10T10:49:23.693Z,258
2023-04-10T10:50:47.098Z,275
2023-04-10T10:52:10.518Z,146
2023-04-10T10:53:33.917Z,331
2023-04-10T10:54:57.327Z,444
2023-04-10T10:56:20.740Z,551
2023-04-10T10:57:43.163Z,466
2023-04-10T10:59:06.576Z,405
2023-04-10T11:00:29.977Z,348
2023-04-10T11:01:53.381Z,382
2023-04-10T11:03:16.802Z,635
2023-04-10T11:04:40.198Z,646
2023-04-10T11:06:03.610Z,489
2023-04-10T11:07:27.034Z,630
2023-04-10T11:08:50.434Z,731
2023-04-10T11:10:13.834Z,444
2023-04-10T11:11:37.242Z,343
2023-04-10T11:13:00.664Z,376
2023-04-10T11:14:24.000Z,427
2023-04-10T11:15:46.487Z,421
2023-04-10T11:17:09.890Z,472
2023-04-10T11:18:33.296Z,579
2023-04-10T11:19:56.717Z,180
2023-04-10T11:21:20.130Z,675
2023-04-10T11:22:43.520Z,506
2023-04-10T11:24:06.929Z,225
2023-04-10T11:25:30.332Z,180
2023-04-10T11:26:53.748Z,843
2023-04-10T11:28:17.176Z,888
2023-04-10T11:29:40.590Z,714
2023-04-10T11:31:03.996Z,646
2023-04-10T11:32:27.395Z,511
2023-04-10T11:33:49.830Z,438
2023-04-10T11:35:13.227Z,388
2023-04-10T11:36:36.646Z,410
2023-04-10T11:38:00.051Z,652
2023-04-10T11:39:23.464Z,770
2023-04-10T11:40:46.869Z,826
2023-04-10T11:42:10.270Z,911
2023-04-10T11:43:33.676Z,855
2023-04-10T11:44:57.094Z,1046
2023-04-10T11:46:20.507Z,1029
2023-04-10T11:47:43.915Z,686
2023-04-10T11:49:07.319Z,399
2023-04-10T11:50:30.721Z,185
2023-04-10T11:51:53.149Z,219
2023-04-10T11:53:16.550Z,793
2023-04-10T11:54:39.966Z,658
2023-04-10T11:56:03.360Z,551
2023-04-10T11:57:26.767Z,551
2023-04-10T11:58:50.174Z,495
2023-04-10T12:00:13.585Z,253
2023-04-10T12:01:37.006Z,405
2023-04-10T12:03:00.410Z,208
2023-04-10T12:04:23.811Z,770
2023-04-10T12:05:47.224Z,1068
2023-04-10T12:07:10.625Z,511
2023-04-10T12:08:34.046Z,230
2023-04-10T12:09:56.461Z,1125
2023-04-10T12:11:19.868Z,1113
2023-04-10T12:12:43.273Z,1192
2023-04-10T12:14:06.681Z,1074
2023-04-10T12:15:30.106Z,444
2023-04-10T12:16:53.522Z,416
2023-04-10T12:18:16.914Z,270
2023-04-10T12:19:40.331Z,495
2023-04-10T12:21:03.743Z,461
2023-04-10T12:22:27.159Z,568
2023-04-10T12:23:50.568Z,151
2023-04-10T12:25:13.960Z,135
2023-04-10T12:26:37.374Z,163
2023-04-10T12:27:59.797Z,326
2023-04-10T12:29:23.210Z,275
2023-04-10T12:30:46.610Z,1018
2023-04-10T12:32:10.023Z,523
2023-04-10T12:33:33.434Z,495
2023-04-10T12:34:56.847Z,956
2023-04-10T12:36:20.262Z,1119
2023-04-10T12:37:43.673Z,1096
2023-04-10T12:39:07.069Z,1057
2023-04-10T12:40:30.500Z,208
2023-04-10T12:41:53.894Z,1136
2023-04-10T12:43:17.302Z,1096
2023-04-10T12:44:40.727Z,939
2023-04-10T12:46:03.136Z,703
2023-04-10T12:47:26.564Z,455
2023-04-10T12:48:49.957Z,450
2023-04-10T12:50:13.372Z,511
2023-04-10T12:51:36.775Z,579
2023-04-10T12:53:00.200Z,765
2023-04-10T12:54:23.597Z,1063
2023-04-10T12:55:47.015Z,1130
2023-04-10T12:57:10.426Z,1080
2023-04-10T12:58:33.842Z,905
2023-04-10T12:59:57.244Z,894
2023-04-10T13:01:20.661Z,753
2023-04-10T13:02:44.064Z,472
2023-04-10T13:04:06.487Z,495
2023-04-10T13:05:29.907Z,911
2023-04-10T13:06:53.322Z,1085
2023-04-10T13:08:16.720Z,1186
2023-04-10T13:09:40.136Z,1237
2023-04-10T13:11:03.552Z,1102
2023-04-10T13:12:26.942Z,905
2023-04-10T13:13:50.356Z,697
2023-04-10T13:15:13.774Z,298
2023-04-10T13:16:37.177Z,320
2023-04-10T13:18:00.577Z,225
2023-04-10T13:19:23.982Z,444
2023-04-10T13:20:47.400Z,270
2023-04-10T13:22:09.834Z,933
2023-04-10T13:23:33.243Z,1012
2023-04-10T13:24:56.640Z,1057
2023-04-10T13:26:20.053Z,1057
2023-04-10T13:27:43.446Z,1051
2023-04-10T13:29:06.866Z,1029
2023-04-10T13:30:30.276Z,984
2023-04-10T13:31:53.682Z,1096
2023-04-10T13:33:17.090Z,871
2023-04-10T13:34:40.492Z,444
2023-04-10T13:36:03.905Z,590
2023-04-10T13:37:27.323Z,916
2023-04-10T13:38:50.742Z,900
2023-04-10T13:40:13.162Z,742
2023-04-10T13:41:36.573Z,686
2023-04-10T13:42:59.981Z,568
2023-04-10T13:44:23.398Z,517
2023-04-10T13:45:46.805Z,506
2023-04-10T13:47:10.225Z,511
2023-04-10T13:48:33.620Z,596
2023-04-10T13:49:57.037Z,573
2023-04-10T13:51:20.434Z,410
2023-04-10T13:52:43.855Z,601
2023-04-10T13:54:07.252Z,1102
2023-04-10T13:55:30.659Z,1130
2023-04-10T13:56:54.078Z,1130
2023-04-10T13:58:16.515Z,1068
2023-04-10T13:59:39.918Z,973
2023-04-10T14:01:03.329Z,1091
2023-04-10T14:02:26.755Z,1125
2023-04-10T14:03:50.160Z,1198
2023-04-10T14:05:13.558Z,945
2023-04-10T14:06:35.995Z,489
2023-04-10T14:07:59.404Z,478
2023-04-10T14:09:22.809Z,590
2023-04-10T14:10:46.236Z,635
2023-04-10T14:12:09.633Z,534
2023-04-10T14:13:33.056Z,528
2023-04-10T14:14:56.453Z,562
2023-04-10T14:16:19.857Z,748
2023-04-10T14:17:43.280Z,905
2023-04-10T14:19:06.690Z,1186
2023-04-10T14:20:30.098Z,945
2023-04-10T14:21:53.522Z,500
2023-04-10T14:23:16.930Z,500
2023-04-10T14:24:39.349Z,883
2023-04-10T14:26:02.755Z,1063
2023-04-10T14:27:26.171Z,1108
2023-04-10T14:28:49.576Z,1125
2023-04-10T14:30:13.003Z,1158
2023-04-10T14:31:36.413Z,1136
2023-04-10T14:32:59.821Z,1130
2023-04-10T14:34:23.237Z,877
2023-04-10T14:35:46.645Z,489
2023-04-10T14:37:10.055Z,388
2023-04-10T14:38:33.465Z,416
2023-04-10T14:39:56.873Z,495
2023-04-10T14:41:20.287Z,540
2023-04-10T14:42:42.711Z,703
2023-04-10T14:44:06.116Z,759
2023-04-10T14:45:29.526Z,826
2023-04-10T14:46:52.919Z,888
2023-04-10T14:48:16.346Z,928
2023-04-10T14:49:39.745Z,888
2023-04-10T14:51:03.166Z,556
2023-04-10T14:52:26.560Z,410
2023-04-10T14:53:49.965Z,731
2023-04-10T14:55:13.374Z,995
2023-04-10T14:56:36.800Z,973
2023-04-10T14:58:00.203Z,894
2023-04-10T14:59:23.626Z,765
2023-04-10T15:00:46.041Z,765
2023-04-10T15:02:09.444Z,613
2023-04-10T15:03:32.862Z,416
2023-04-10T15:04:56.270Z,337
2023-04-10T15:06:19.682Z,326
2023-04-10T15:07:43.089Z,376
2023-04-10T15:09:06.500Z,416
2023-04-10T15:10:29.911Z,506
2023-04-10T15:11:53.297Z,787
2023-04-10T15:13:16.716Z,883
2023-04-10T15:14:40.118Z,765
2023-04-10T15:16:03.541Z,669
2023-04-10T15:17:26.950Z,421
2023-04-10T15:18:49.374Z,320
2023-04-10T15:20:12.776Z,461
2023-04-10T15:21:36.179Z,630
2023-04-10T15:22:59.594Z,658
2023-04-10T15:24:22.996Z,573
2023-04-10T15:25:46.422Z,489
2023-04-10T15:27:09.825Z,360
2023-04-10T15:28:33.225Z,303
2023-04-10T15:29:56.655Z,292
2023-04-10T15:31:20.046Z,275
2023-04-10T15:32:43.454Z,416
2023-04-10T15:34:06.875Z,630
2023-04-10T15:35:30.279Z,680
2023-04-10T15:36:52.692Z,691
2023-04-10T15:38:16.109Z,247
2023-04-10T15:39:39.511Z,123
2023-04-10T15:41:02.927Z,112
2023-04-10T15:42:26.325Z,112
2023-04-10T15:43:49.738Z,112
2023-04-10T15:45:13.136Z,112
2023-04-10T15:46:36.566Z,112
2023-04-10T15:47:59.959Z,106
2023-04-10T15:49:23.378Z,106
2023-04-10T15:50:46.793Z,101
2023-04-10T15:52:10.198Z,101
2023-04-10T15:53:33.609Z,95
2023-04-10T15:54:56.041Z,95
2023-04-10T15:56:19.452Z,90
2023-04-10T15:57:42.844Z,90
2023-04-10T15:59:06.262Z,84
2023-04-10T16:00:29.675Z,84
2023-04-10T16:01:53.073Z,78
2023-04-10T16:03:16.491Z,78
2023-04-10T16:04:39.885Z,73
2023-04-10T16:06:03.294Z,73
2023-04-10T16:07:26.709Z,67
2023-04-10T16:08:50.117Z,67
2023-04-10T16:10:13.534Z,61
2023-04-10T16:11:36.000Z,61
2023-04-10T16:12:59.356Z,56
2023-04-10T16:14:22.764Z,56
2023-04-10T16:15:46.176Z,50
2023-04-10T16:17:09.589Z,50
2023-04-10T16:18:32.982Z,45
2023-04-10T16:19:56.404Z,45
2023-04-10T16:21:19.812Z,45
2023-04-10T16:22:43.214Z,45
2023-04-10T16:24:06.625Z,39
2023-04-10T16:25:30.038Z,39
2023-04-10T16:26:53.445Z,39
2023-04-10T16:28:16.857Z,33
2023-04-10T16:29:40.250Z,33
2023-04-10T16:31:02.683Z,33
2023-04-10T16:32:26.087Z,33
2023-04-10T16:33:49.506Z,33
2023-04-10T16:35:12.912Z,33
2023-04-10T16:36:36.321Z,39
2023-04-10T16:37:59.721Z,39
2023-04-10T16:39:23.126Z,33
2023-04-10T16:40:46.536Z,33
2023-04-10T16:42:09.947Z,33
2023-04-10T16:43:33.360Z,33
2023-04-10T16:44:56.764Z,33
2023-04-10T16:46:20.177Z,33
2023-04-10T16:47:43.589Z,33
2023-04-10T16:49:06.003Z,33
2023-04-10T16:50:29.408Z,28
2023-04-10T16:53:16.234Z,28
2023-04-10T16:54:39.644Z,28
2023-04-10T16:56:03.043Z,28
2023-04-10T16:57:26.452Z,28
2023-04-10T16:58:49.869Z,22
2023-04-10T17:00:13.281Z,22
2023-04-10T17:01:36.688Z,22
2023-04-10T17:03:00.089Z,22
2023-04-10T17:04:23.489Z,16
2023-04-10T17:05:46.908Z,16
2023-04-10T17:07:09.331Z,16
2023-04-10T17:08:32.731Z,16
2023-04-10T17:09:56.154Z,16
2023-04-10T17:11:19.561Z,16
2023-04-10T17:12:42.968Z,16
2023-04-10T17:14:06.373Z,16
2023-04-10T17:15:29.790Z,16
2023-04-10T17:16:53.199Z,11
2023-04-10T17:18:16.607Z,11
2023-04-10T17:19:40.013Z,11
2023-04-10T17:21:03.419Z,11
2023-04-10T17:22:26.817Z,11
2023-04-10T17:23:50.224Z,11
2023-04-10T17:25:12.646Z,11
2023-04-10T17:26:36.066Z,11
2023-04-10T17:27:59.458Z,5
2023-04-10T17:29:22.862Z,5
2023-04-10T17:30:46.288Z,5
2023-04-10T17:32:09.691Z,5
2023-04-10T17:33:33.092Z,5
2023-04-10T17:34:56.512Z,5
2023-04-10T17:36:19.906Z,5
2023-04-10T17:37:43.334Z,5
2023-04-10T17:39:06.738Z,5
2023-04-10T17:40:30.132Z,5
2023-04-10T17:41:53.542Z,5
2023-04-10T17:43:15.975Z,0
2023-04-10T17:44:39.374Z,0
2023-04-10T17:46:02.770Z,0
2023-04-10T17:47:26.192Z,0
2023-04-10T17:48:49.603Z,0
2023-04-10T17:50:12.999Z,0
2023-04-10T17:51:36.408Z,0
2023-04-10T17:52:59.821Z,0
2023-04-10T17:54:23.232Z,0
2023-04-10T17:55:46.646Z,0
2023-04-10T17:57:10.052Z,0
2023-04-10T17:58:33.455Z,0
2023-04-10T17:59:56.863Z,0
2023-04-10T18:01:19.298Z,0
2023-04-10T18:02:42.693Z,0
2023-04-10T18:04:06.113Z,0
2023-04-10T18:05:29.515Z,0
2023-04-10T18:06:52.918Z,0
2023-04-10T18:08:16.337Z,0
2023-04-10T18:09:39.745Z,0
2023-04-10T18:11:03.142Z,0
2023-04-10T18:12:26.563Z,0
2023-04-10T18:13:49.968Z,0
2023-04-10T18:15:13.364Z,0
2023-04-10T18:16:36.783Z,0
2023-04-10T18:18:00.177Z,0
2023-04-10T18:19:22.616Z,0
2023-04-10T18:20:46.028Z,0
2023-04-10T18:22:09.423Z,0
2023-04-10T18:23:32.845Z,0
2023-04-10T18:24:56.295Z,0
2023-04-10T18:26:19.733Z,0
2023-04-10T18:27:43.195Z,0
2023-04-10T18:29:06.647Z,0
2023-04-10T18:30:30.096Z,0
2023-04-10T18:31:53.541Z,0
2023-04-10T18:33:16.998Z,0
2023-04-10T18:36:03.889Z,0
2023-04-10T18:37:26.364Z,0
2023-04-10T18:38:49.817Z,0
2023-04-10T18:40:13.264Z,0
2023-04-10T18:41:36.714Z,0
2023-04-10T18:43:00.176Z,0
2023-04-10T18:44:23.615Z,0
2023-04-10T18:45:46.094Z,0
2023-04-10T18:47:09.535Z,0
2023-04-10T18:48:32.987Z,0
2023-04-10T18:49:56.432Z,0
2023-04-10T18:51:19.895Z,0
2023-04-10T18:52:43.344Z,0
2023-04-10T18:54:06.797Z,0
2023-04-10T18:55:30.248Z,0
2023-04-10T18:56:53.684Z,0
2023-04-10T18:58:17.151Z,0
2023-04-10T18:59:40.602Z,0
2023-04-10T19:01:04.056Z,0
2023-04-10T19:02:27.489Z,0
2023-04-10T19:03:49.973Z,0
2023-04-10T19:05:13.429Z,0
2023-04-10T19:06:36.858Z,0
2023-04-10T19:08:00.307Z,0
2023-04-10T19:09:23.760Z,0
2023-04-10T19:10:47.205Z,0
2023-04-10T19:12:10.665Z,0
2023-04-10T19:13:34.106Z,0
2023-04-10T19:14:57.568Z,0
2023-04-10T19:16:21.004Z,0
2023-04-10T19:17:44.459Z,0
2023-04-10T19:19:07.912Z,0
2023-04-10T19:20:31.351Z,0
2023-04-10T19:21:53.817Z,0
2023-04-10T19:23:17.272Z,0
2023-04-10T19:24:40.716Z,0
2023-04-10T19:27:27.618Z,0
2023-04-10T19:28:51.058Z,0
2023-04-10T19:30:14.509Z,0
2023-04-10T19:31:37.969Z,0
2023-04-10T19:33:01.405Z,0
2023-04-10T19:34:24.862Z,0
2023-04-10T19:35:48.307Z,0
2023-04-10T19:37:11.764Z,0
2023-04-10T19:39:58.668Z,0
2023-04-10T19:41:21.114Z,0
2023-04-10T19:42:44.567Z,0
2023-04-10T19:44:08.030Z,0
2023-04-10T19:45:31.469Z,0
2023-04-10T19:46:54.923Z,0
2023-04-10T19:48:18.378Z,0
2023-04-10T19:49:41.826Z,0
2023-04-10T19:51:05.265Z,0
2023-04-10T19:52:28.715Z,0
2023-04-10T19:53:52.176Z,0
2023-04-10T19:55:15.628Z,0
2023-04-10T19:56:39.076Z,0
2023-04-10T19:58:02.526Z,0
2023-04-10T19:59:24.981Z,0
2023-04-10T20:00:48.437Z,0
2023-04-10T20:02:11.879Z,0
2023-04-10T20:03:35.329Z,0
2023-04-10T20:04:58.791Z,0
2023-04-10T20:06:22.228Z,0
2023-04-10T20:07:45.692Z,0
2023-04-10T20:09:09.128Z,0
2023-04-10T20:10:32.584Z,0
2023-04-10T20:11:56.034Z,0
2023-04-10T20:13:19.490Z,0
2023-04-10T20:14:42.942Z,0
2023-04-10T20:16:06.391Z,0
2023-04-10T20:17:28.858Z,0
2023-04-10T20:18:52.292Z,0
2023-04-10T20:20:15.739Z,0
2023-04-10T20:21:39.202Z,0
2023-04-10T20:23:02.641Z,0
2023-04-10T20:24:26.107Z,0
2023-04-10T20:25:49.554Z,0
2023-04-10T20:27:13.007Z,0
2023-04-10T20:28:36.453Z,0
2023-04-10T20:29:59.890Z,0
2023-04-10T20:31:23.335Z,0
2023-04-10T20:32:46.802Z,0
2023-04-10T20:34:10.237Z,0
2023-04-10T20:35:32.711Z,0
2023-04-10T20:36:56.158Z,0
2023-04-10T20:38:19.618Z,0
2023-04-10T20:39:43.056Z,0
2023-04-10T20:41:06.512Z,0
2023-04-10T20:42:29.960Z,0
2023-04-10T20:43:53.414Z,0
2023-04-10T20:46:40.302Z,0
2023-04-10T20:48:03.754Z,0
2023-04-10T20:49:27.196Z,0
2023-04-10T20:50:50.651Z,0
2023-04-10T20:52:14.113Z,0
2023-04-10T20:53:36.565Z,0
2023-04-10T20:55:00.020Z,0
2023-04-10T20:56:23.466Z,0
2023-04-10T21:11:46.769Z,0
2023-04-10T21:27:10.067Z,0
2023-04-10T21:42:33.350Z,0
2023-04-10T21:57:56.657Z,0
2023-04-10T22:13:19.946Z,0
2023-04-10T22:28:43.229Z,0
2023-04-10T22:44:06.530Z,0
2023-04-10T22:59:29.824Z,0
2023-04-10T23:14:53.137Z,0
2023-04-10T23:30:16.425Z,0
2023-04-10T23:45:38.740Z,0
